Time;durP1;ratioP1;P1;durP2;ratioP2;P2;SDS_P1;SDS_P2;PMS_P1;PMS_P2;Temp;Humidity;BMP_temperature;BMP_pressure;BME280_temperature;BME280_humidity;BME280_pressure;Samples;Min_cycle;Max_cycle;Signal;HPM_P1;HPM_P2
2022/11/02 00:00:55;;;;;;;7.83;2.10;;;;;;;;;;4997238;28;20599;-81
2022/11/02 00:03:24;;;;;;;5.47;2.07;;;;;;;;;;4996776;28;20241;-81
2022/11/02 00:05:52;;;;;;;10.23;2.30;;;;;;;;;;4996506;28;20237;-80
2022/11/02 00:08:21;;;;;;;8.93;2.30;;;;;;;;;;4996021;28;20682;-80
2022/11/02 00:10:49;;;;;;;8.80;2.33;;;;;;;;;;4996841;28;20264;-81
2022/11/02 00:13:17;;;;;;;8.23;2.10;;;;;;;;;;4995753;28;20202;-81
2022/11/02 00:15:46;;;;;;;5.90;2.03;;;;;;;;;;4996137;28;20233;-81
2022/11/02 00:18:16;;;;;;;10.93;1.90;;;;;;;;;;4996656;28;20288;-81
2022/11/02 00:20:45;;;;;;;9.70;2.40;;;;;;;;;;4995821;28;20308;-81
2022/11/02 00:23:14;;;;;;;8.70;2.10;;;;;;;;;;4995037;28;20239;-80
2022/11/02 00:25:44;;;;;;;9.77;2.10;;;;;;;;;;4995146;28;20251;-81
2022/11/02 00:28:13;;;;;;;7.87;2.23;;;;;;;;;;4995523;28;20636;-80
2022/11/02 00:30:42;;;;;;;6.93;2.17;;;;;;;;;;4994783;28;20267;-80
2022/11/02 00:33:10;;;;;;;12.33;2.30;;;;;;;;;;4994900;28;20248;-81
2022/11/02 00:35:41;;;;;;;7.13;2.00;;;;;;;;;;4994837;28;20251;-77
2022/11/02 00:38:09;;;;;;;8.50;2.20;;;;;;;;;;4995316;28;20693;-81
2022/11/02 00:40:37;;;;;;;7.20;2.20;;;;;;;;;;4994985;28;20296;-80
2022/11/02 00:43:06;;;;;;;5.80;1.83;;;;;;;;;;4981710;28;20290;-79
2022/11/02 00:45:34;;;;;;;9.20;2.33;;;;;;;;;;4975492;28;20206;-81
2022/11/02 00:48:03;;;;;;;7.03;2.20;;;;;;;;;;4975549;28;20233;-80
2022/11/02 00:50:32;;;;;;;7.93;2.00;;;;;;;;;;4975364;28;20265;-80
2022/11/02 00:53:02;;;;;;;8.10;2.40;;;;;;;;;;4975280;28;20679;-80
2022/11/02 00:55:30;;;;;;;7.57;2.00;;;;;;;;;;4975493;28;20217;-81
2022/11/02 00:57:59;;;;;;;5.23;1.83;;;;;;;;;;4975638;28;20206;-80
2022/11/02 01:00:28;;;;;;;7.50;2.10;;;;;;;;;;4975148;28;20253;-80
2022/11/02 01:02:59;;;;;;;5.53;2.27;;;;;;;;;;4974873;28;20325;-80
2022/11/02 01:05:28;;;;;;;7.63;2.20;;;;;;;;;;4975097;28;20232;-81
2022/11/02 01:07:56;;;;;;;5.83;2.10;;;;;;;;;;4975229;28;20679;-80
2022/11/02 01:10:27;;;;;;;7.97;2.20;;;;;;;;;;4975614;28;20233;-81
2022/11/02 01:12:55;;;;;;;7.33;1.90;;;;;;;;;;4975687;28;20233;-81
2022/11/02 01:15:23;;;;;;;7.77;2.40;;;;;;;;;;4975106;28;20617;-79
2022/11/02 01:17:52;;;;;;;7.37;1.80;;;;;;;;;;4975649;28;20248;-81
2022/11/02 01:20:20;;;;;;;8.17;2.23;;;;;;;;;;4975199;28;20750;-79
2022/11/02 01:22:49;;;;;;;6.83;2.00;;;;;;;;;;4975423;28;20737;-80
2022/11/02 01:25:17;;;;;;;6.33;2.03;;;;;;;;;;4974836;28;20295;-80
2022/11/02 01:27:47;;;;;;;5.03;2.10;;;;;;;;;;4974550;28;20210;-79
2022/11/02 01:30:16;;;;;;;7.10;2.07;;;;;;;;;;4975008;28;20630;-80
2022/11/02 01:32:44;;;;;;;10.97;2.10;;;;;;;;;;4974730;28;20292;-80
2022/11/02 01:35:13;;;;;;;8.27;2.23;;;;;;;;;;4974644;28;20245;-80
2022/11/02 01:37:41;;;;;;;9.93;2.30;;;;;;;;;;4975082;28;20202;-81
2022/11/02 01:40:10;;;;;;;9.07;1.80;;;;;;;;;;4974626;28;20301;-80
2022/11/02 01:42:38;;;;;;;6.10;2.00;;;;;;;;;;4974767;28;20295;-81
2022/11/02 01:45:10;;;;;;;7.40;1.93;;;;;;;;;;4974726;28;20253;-81
2022/11/02 01:47:40;;;;;;;7.27;2.10;;;;;;;;;;4975853;28;20285;-81
2022/11/02 01:50:11;;;;;;;7.27;2.47;;;;;;;;;;4975942;28;20218;-80
2022/11/02 01:52:40;;;;;;;7.23;1.90;;;;;;;;;;4975025;28;20226;-80
2022/11/02 01:55:11;;;;;;;9.77;2.37;;;;;;;;;;4974551;28;20587;-80
2022/11/02 01:57:41;;;;;;;4.87;1.90;;;;;;;;;;4974878;28;20194;-80
2022/11/02 02:00:12;;;;;;;7.87;2.10;;;;;;;;;;4975628;28;20610;-80
2022/11/02 02:02:43;;;;;;;7.43;2.30;;;;;;;;;;4975578;28;20606;-81
2022/11/02 02:05:13;;;;;;;4.60;1.90;;;;;;;;;;4975345;28;20666;-80
2022/11/02 02:07:42;;;;;;;10.43;2.43;;;;;;;;;;4975447;28;20202;-81
2022/11/02 02:10:10;;;;;;;7.77;2.33;;;;;;;;;;4975088;28;20284;-80
2022/11/02 02:12:40;;;;;;;9.63;2.40;;;;;;;;;;4975499;28;20624;-80
2022/11/02 02:15:09;;;;;;;9.80;2.20;;;;;;;;;;4975051;28;20264;-81
2022/11/02 02:17:43;;;;;;;6.37;2.10;;;;;;;;;;4975510;28;20257;-80
2022/11/02 02:20:15;;;;;;;7.87;2.33;;;;;;;;;;4975131;28;20291;-79
2022/11/02 02:22:55;;;;;;;9.27;2.40;;;;;;;;;;4974699;28;20301;-81
2022/11/02 02:25:27;;;;;;;7.50;1.77;;;;;;;;;;4974873;28;20273;-80
2022/11/02 02:28:07;;;;;;;8.50;2.00;;;;;;;;;;4976486;28;20273;-79
2022/11/02 02:30:38;;;;;;;11.30;2.47;;;;;;;;;;4979456;28;20230;-80
2022/11/02 02:33:09;;;;;;;6.40;1.80;;;;;;;;;;4978734;28;20217;-79
2022/11/02 02:35:40;;;;;;;7.60;1.80;;;;;;;;;;4978080;28;20225;-79
2022/11/02 02:38:11;;;;;;;9.73;2.10;;;;;;;;;;4977906;28;20337;-80
2022/11/02 02:40:41;;;;;;;9.53;2.10;;;;;;;;;;4978128;28;20234;-77
2022/11/02 02:43:13;;;;;;;12.23;2.20;;;;;;;;;;4977359;28;20214;-79
2022/11/02 02:45:44;;;;;;;9.70;2.23;;;;;;;;;;4982421;28;20647;-79
2022/11/02 02:48:15;;;;;;;7.63;2.20;;;;;;;;;;4997377;28;20240;-79
2022/11/02 02:50:46;;;;;;;7.40;2.13;;;;;;;;;;4996879;28;20232;-78
2022/11/02 02:53:15;;;;;;;6.47;2.00;;;;;;;;;;4996721;28;20213;-79
2022/11/02 02:55:45;;;;;;;8.43;2.43;;;;;;;;;;4997378;28;20690;-79
2022/11/02 02:58:17;;;;;;;7.67;2.23;;;;;;;;;;4997484;28;20292;-80
2022/11/02 03:00:46;;;;;;;6.17;2.00;;;;;;;;;;4996886;28;20253;-79
2022/11/02 03:03:17;;;;;;;6.13;1.73;;;;;;;;;;4997227;28;20261;-80
2022/11/02 03:05:56;;;;;;;6.50;2.07;;;;;;;;;;4996772;28;20239;-79
2022/11/02 03:08:24;;;;;;;8.13;2.20;;;;;;;;;;4996648;28;20189;-80
2022/11/02 03:10:55;;;;;;;8.47;2.00;;;;;;;;;;4997093;28;20311;-80
2022/11/02 03:13:35;;;;;;;8.60;1.87;;;;;;;;;;4996544;28;20232;-80
2022/11/02 03:16:05;;;;;;;5.77;1.90;;;;;;;;;;4997079;28;20181;-79
2022/11/02 03:18:39;;;;;;;9.00;2.10;;;;;;;;;;4996316;28;20284;-79
2022/11/02 03:21:14;;;;;;;8.57;2.43;;;;;;;;;;4996342;28;20271;-79
2022/11/02 03:23:47;;;;;;;6.30;2.13;;;;;;;;;;4996354;28;20209;-79
2022/11/02 03:26:20;;;;;;;9.83;2.40;;;;;;;;;;4996655;28;20728;-79
2022/11/02 03:28:55;;;;;;;9.43;2.13;;;;;;;;;;4996647;28;20313;-79
2022/11/02 03:31:27;;;;;;;8.47;2.30;;;;;;;;;;4996457;28;20283;-80
2022/11/02 03:33:58;;;;;;;7.33;1.73;;;;;;;;;;4996673;28;20615;-80
2022/11/02 03:36:32;;;;;;;8.13;2.07;;;;;;;;;;4996586;28;20236;-79
2022/11/02 03:39:04;;;;;;;9.63;2.27;;;;;;;;;;4996349;28;20650;-78
2022/11/02 03:41:34;;;;;;;9.60;2.43;;;;;;;;;;4996073;28;20321;-80
2022/11/02 03:44:06;;;;;;;6.30;2.03;;;;;;;;;;4995914;28;20260;-80
2022/11/02 03:46:37;;;;;;;6.47;2.00;;;;;;;;;;4996393;28;20300;-80
2022/11/02 03:49:06;;;;;;;7.43;2.00;;;;;;;;;;4996061;28;20225;-78
2022/11/02 03:51:37;;;;;;;6.70;2.20;;;;;;;;;;4995756;28;20749;-79
2022/11/02 03:54:07;;;;;;;9.47;2.30;;;;;;;;;;4995715;28;20209;-79
2022/11/02 03:56:37;;;;;;;6.53;2.10;;;;;;;;;;4996599;28;20625;-80
2022/11/02 03:59:07;;;;;;;8.53;2.50;;;;;;;;;;4995773;28;20277;-80
2022/11/02 04:01:38;;;;;;;7.47;1.97;;;;;;;;;;4995956;28;20260;-79
2022/11/02 04:04:07;;;;;;;7.57;2.20;;;;;;;;;;4995906;28;20209;-80
2022/11/02 04:06:36;;;;;;;9.33;2.13;;;;;;;;;;4996207;28;20205;-79
2022/11/02 04:09:04;;;;;;;8.40;2.30;;;;;;;;;;4996706;28;20633;-78
2022/11/02 04:14:40;;;;;;;7.70;2.20;;;;;;;;;;4996765;28;20182;-79
2022/11/02 04:19:55;;;;;;;6.57;2.20;;;;;;;;;;4996181;28;20568;-80
2022/11/02 04:25:17;;;;;;;6.03;1.97;;;;;;;;;;4995549;28;20263;-78
2022/11/02 04:27:47;;;;;;;8.87;2.30;;;;;;;;;;4994980;28;20213;-80
2022/11/02 04:30:18;;;;;;;10.17;2.00;;;;;;;;;;4995069;28;20288;-80
2022/11/02 04:35:34;;;;;;;6.53;2.00;;;;;;;;;;4994798;28;20278;-79
2022/11/02 04:41:40;;;;;;;7.33;2.30;;;;;;;;;;4995056;28;20312;-80
2022/11/02 04:43:38;;;;;;;7.17;1.90;;;;;;;;;;4994477;28;20225;-80
2022/11/02 04:46:08;;;;;;;8.67;2.30;;;;;;;;;;4995169;28;20244;-80
2022/11/02 04:48:36;;;;;;;8.00;2.30;;;;;;;;;;4994776;28;20296;-80
2022/11/02 04:51:05;;;;;;;8.57;2.17;;;;;;;;;;4994551;28;20774;-78
2022/11/02 04:53:34;;;;;;;7.27;1.73;;;;;;;;;;4994452;28;20255;-79
2022/11/02 04:56:02;;;;;;;7.20;2.20;;;;;;;;;;4994788;28;20212;-79
2022/11/02 04:58:31;;;;;;;7.47;2.30;;;;;;;;;;4994871;28;20197;-80
2022/11/02 05:00:59;;;;;;;7.27;2.33;;;;;;;;;;4994945;28;20229;-79
2022/11/02 05:03:29;;;;;;;6.60;2.33;;;;;;;;;;4994601;28;20686;-79
2022/11/02 05:05:57;;;;;;;8.07;2.60;;;;;;;;;;4994354;28;20296;-79
2022/11/02 05:08:26;;;;;;;6.77;1.87;;;;;;;;;;4995190;28;20296;-81
2022/11/02 05:10:55;;;;;;;6.93;2.20;;;;;;;;;;4994950;28;20221;-80
2022/11/02 05:13:24;;;;;;;7.37;1.90;;;;;;;;;;4994702;28;20340;-79
2022/11/02 05:15:52;;;;;;;9.63;2.40;;;;;;;;;;4994946;28;20236;-79
2022/11/02 05:18:21;;;;;;;8.63;2.40;;;;;;;;;;4995257;28;20212;-79
2022/11/02 05:20:56;;;;;;;8.40;2.23;;;;;;;;;;4994784;28;20312;-80
2022/11/02 05:23:25;;;;;;;6.60;2.10;;;;;;;;;;4995039;28;20209;-81
2022/11/02 05:25:54;;;;;;;8.03;2.23;;;;;;;;;;4994573;28;20221;-79
2022/11/02 05:28:23;;;;;;;8.47;2.50;;;;;;;;;;4994475;28;20255;-80
2022/11/02 05:30:51;;;;;;;7.90;2.30;;;;;;;;;;4994874;28;20248;-80
2022/11/02 05:33:20;;;;;;;7.77;2.13;;;;;;;;;;4994697;28;20271;-80
2022/11/02 05:35:48;;;;;;;10.73;2.37;;;;;;;;;;4994072;28;20201;-81
2022/11/02 05:38:18;;;;;;;6.80;2.00;;;;;;;;;;4989004;28;20210;-77
2022/11/02 05:40:51;;;;;;;3.60;1.97;;;;;;;;;;4992033;28;20283;-77
2022/11/02 05:43:20;;;;;;;8.80;2.43;;;;;;;;;;4993917;28;20185;-77
2022/11/02 05:45:52;;;;;;;8.13;2.40;;;;;;;;;;4983261;28;20746;-77
2022/11/02 05:48:21;;;;;;;8.43;2.43;;;;;;;;;;4981366;28;20296;-78
2022/11/02 05:50:50;;;;;;;10.20;2.53;;;;;;;;;;4991017;28;20312;-78
2022/11/02 05:53:20;;;;;;;7.87;2.67;;;;;;;;;;4991807;28;20240;-77
2022/11/02 05:55:48;;;;;;;10.03;2.53;;;;;;;;;;4982246;28;20206;-78
2022/11/02 05:58:17;;;;;;;6.07;2.13;;;;;;;;;;4992928;28;20285;-77
2022/11/02 06:00:46;;;;;;;10.77;2.20;;;;;;;;;;4993269;28;20236;-76
2022/11/02 06:03:16;;;;;;;8.10;2.23;;;;;;;;;;4995016;28;20240;-77
2022/11/02 06:05:44;;;;;;;6.80;2.27;;;;;;;;;;4993227;28;20222;-76
2022/11/02 06:08:13;;;;;;;9.03;2.23;;;;;;;;;;4996119;28;20201;-76
2022/11/02 06:10:43;;;;;;;7.90;2.33;;;;;;;;;;4996517;28;20259;-77
2022/11/02 06:13:11;;;;;;;5.00;1.67;;;;;;;;;;4996738;28;20666;-76
2022/11/02 06:15:40;;;;;;;7.07;2.37;;;;;;;;;;4996131;28;20293;-77
2022/11/02 06:18:08;;;;;;;6.13;2.20;;;;;;;;;;4995797;28;20643;-76
2022/11/02 06:20:37;;;;;;;8.77;2.27;;;;;;;;;;4993171;28;20300;-76
2022/11/02 06:23:06;;;;;;;9.33;2.60;;;;;;;;;;4982399;28;20251;-77
2022/11/02 06:25:35;;;;;;;8.03;2.40;;;;;;;;;;4996339;28;20692;-77
2022/11/02 06:28:05;;;;;;;9.70;2.40;;;;;;;;;;4996591;28;20256;-77
2022/11/02 06:30:33;;;;;;;6.03;1.90;;;;;;;;;;4996180;28;20275;-76
2022/11/02 06:33:02;;;;;;;9.13;2.80;;;;;;;;;;4995123;28;20600;-77
2022/11/02 06:35:34;;;;;;;7.73;2.33;;;;;;;;;;4991487;28;20201;-77
2022/11/02 06:38:03;;;;;;;5.60;2.10;;;;;;;;;;4992570;28;20209;-76
2022/11/02 06:40:31;;;;;;;6.10;2.57;;;;;;;;;;4977198;28;20300;-77
2022/11/02 06:43:00;;;;;;;10.73;2.40;;;;;;;;;;4982170;28;20202;-77
2022/11/02 06:45:45;;;;;;;7.50;2.43;;;;;;;;;;4987578;28;20253;-76
2022/11/02 06:48:14;;;;;;;8.33;2.50;;;;;;;;;;4997361;28;20197;-77
2022/11/02 06:50:42;;;;;;;8.93;2.20;;;;;;;;;;4996672;28;20221;-76
2022/11/02 06:53:11;;;;;;;5.27;2.17;;;;;;;;;;4995891;28;20299;-77
2022/11/02 06:55:39;;;;;;;7.03;2.10;;;;;;;;;;4996588;28;20197;-76
2022/11/02 06:58:08;;;;;;;5.83;2.10;;;;;;;;;;4995651;28;20267;-76
2022/11/02 07:00:36;;;;;;;7.87;2.47;;;;;;;;;;4996246;28;20595;-76
2022/11/02 07:03:07;;;;;;;8.30;2.30;;;;;;;;;;4996104;28;20209;-76
2022/11/02 07:05:36;;;;;;;9.40;2.47;;;;;;;;;;4996479;28;20700;-76
2022/11/02 07:08:05;;;;;;;14.63;3.20;;;;;;;;;;4977677;28;20233;-76
2022/11/02 07:10:34;;;;;;;8.67;1.97;;;;;;;;;;4976890;28;20265;-76
2022/11/02 07:13:03;;;;;;;4.93;1.97;;;;;;;;;;4976727;28;20664;-76
2022/11/02 07:15:32;;;;;;;10.00;2.70;;;;;;;;;;4991263;28;20263;-77
2022/11/02 07:18:01;;;;;;;8.37;2.37;;;;;;;;;;4995969;28;20197;-76
2022/11/02 07:20:31;;;;;;;8.10;2.50;;;;;;;;;;4994707;28;20205;-76
2022/11/02 07:23:00;;;;;;;7.17;2.63;;;;;;;;;;4993362;28;20233;-77
2022/11/02 07:25:30;;;;;;;5.80;2.03;;;;;;;;;;4995759;28;20256;-76
2022/11/02 07:27:59;;;;;;;10.77;2.37;;;;;;;;;;4996224;28;20201;-76
2022/11/02 07:30:28;;;;;;;6.67;2.27;;;;;;;;;;4995206;28;20260;-77
2022/11/02 07:32:56;;;;;;;6.47;1.90;;;;;;;;;;4990313;28;20248;-75
2022/11/02 07:35:25;;;;;;;8.03;2.60;;;;;;;;;;4995311;28;20284;-76
2022/11/02 07:37:58;;;;;;;7.60;2.50;;;;;;;;;;4995913;28;20271;-76
2022/11/02 07:40:27;;;;;;;8.07;2.60;;;;;;;;;;4995562;28;20233;-76
2022/11/02 07:42:56;;;;;;;7.77;2.40;;;;;;;;;;4995643;28;20248;-76
2022/11/02 07:45:24;;;;;;;7.30;2.20;;;;;;;;;;4995460;28;20671;-76
2022/11/02 07:47:53;;;;;;;6.43;2.17;;;;;;;;;;4996214;28;20316;-76
2022/11/02 07:50:22;;;;;;;6.50;2.50;;;;;;;;;;4995210;28;20263;-75
2022/11/02 07:52:52;;;;;;;8.73;2.30;;;;;;;;;;4995484;28;20205;-75
2022/11/02 07:55:23;;;;;;;6.57;2.23;;;;;;;;;;4995289;28;20272;-76
2022/11/02 07:57:54;;;;;;;7.53;2.00;;;;;;;;;;4995863;28;20725;-76
2022/11/02 08:00:23;;;;;;;6.03;2.00;;;;;;;;;;4995573;28;20315;-75
2022/11/02 08:02:54;;;;;;;6.70;2.33;;;;;;;;;;4995454;28;20744;-76
2022/11/02 08:05:23;;;;;;;6.40;2.30;;;;;;;;;;4994591;28;20690;-76
2022/11/02 08:07:57;;;;;;;7.43;2.20;;;;;;;;;;4995133;28;20252;-76
2022/11/02 08:10:27;;;;;;;7.03;2.17;;;;;;;;;;4995112;28;20299;-75
2022/11/02 08:12:56;;;;;;;11.50;2.37;;;;;;;;;;4995152;28;20202;-76
2022/11/02 08:15:24;;;;;;;8.17;2.63;;;;;;;;;;4993733;28;20293;-76
2022/11/02 08:18:00;;;;;;;8.33;2.30;;;;;;;;;;4994707;28;20255;-75
2022/11/02 08:20:29;;;;;;;10.40;2.33;;;;;;;;;;4994837;28;20574;-75
2022/11/02 08:22:58;;;;;;;8.53;2.33;;;;;;;;;;4994494;28;20239;-75
2022/11/02 08:25:28;;;;;;;6.07;1.90;;;;;;;;;;4990570;28;20767;-76
2022/11/02 08:27:57;;;;;;;6.03;2.07;;;;;;;;;;4995117;28;20217;-76
2022/11/02 08:30:26;;;;;;;8.40;2.10;;;;;;;;;;4994460;28;20233;-76
2022/11/02 08:32:55;;;;;;;7.60;2.63;;;;;;;;;;4994929;28;20295;-76
2022/11/02 08:35:24;;;;;;;5.53;2.10;;;;;;;;;;4994733;28;20219;-76
2022/11/02 08:37:56;;;;;;;6.07;2.37;;;;;;;;;;4994844;28;20301;-77
2022/11/02 08:40:24;;;;;;;8.60;2.50;;;;;;;;;;4994475;28;20301;-76
2022/11/02 08:42:57;;;;;;;9.20;2.57;;;;;;;;;;4994557;28;20244;-76
2022/11/02 08:45:26;;;;;;;7.70;2.20;;;;;;;;;;4986120;28;20202;-76
2022/11/02 08:47:54;;;;;;;8.37;2.90;;;;;;;;;;4990008;28;20256;-76
2022/11/02 08:50:23;;;;;;;9.73;2.30;;;;;;;;;;4994746;28;20618;-76
2022/11/02 08:52:51;;;;;;;7.43;2.60;;;;;;;;;;4994716;28;20258;-75
2022/11/02 08:55:20;;;;;;;10.03;2.50;;;;;;;;;;4994012;28;20279;-76
2022/11/02 08:57:49;;;;;;;6.50;2.40;;;;;;;;;;4994380;28;20209;-77
2022/11/02 09:00:20;;;;;;;6.43;2.13;;;;;;;;;;4994514;28;20300;-76
2022/11/02 09:02:59;;;;;;;6.47;2.43;;;;;;;;;;4994286;28;20193;-76
2022/11/02 09:05:27;;;;;;;6.97;2.27;;;;;;;;;;4994164;28;20197;-75
2022/11/02 09:07:57;;;;;;;6.80;2.23;;;;;;;;;;4994706;28;20610;-76
2022/11/02 09:10:26;;;;;;;7.23;2.33;;;;;;;;;;4994497;28;20245;-75
2022/11/02 09:12:55;;;;;;;7.43;2.30;;;;;;;;;;4994067;28;20244;-76
2022/11/02 09:15:25;;;;;;;7.07;2.33;;;;;;;;;;4993552;28;20288;-76
2022/11/02 09:17:53;;;;;;;6.53;2.13;;;;;;;;;;4994430;28;20209;-76
2022/11/02 09:20:22;;;;;;;5.90;2.07;;;;;;;;;;4994423;28;20224;-76
2022/11/02 09:22:51;;;;;;;9.33;2.27;;;;;;;;;;4994037;28;20244;-75
2022/11/02 09:25:19;;;;;;;7.63;2.60;;;;;;;;;;4990212;28;20248;-76
2022/11/02 09:27:48;;;;;;;7.00;2.30;;;;;;;;;;4990139;28;20225;-76
2022/11/02 09:30:22;;;;;;;6.93;1.90;;;;;;;;;;4993658;28;20215;-75
2022/11/02 09:32:55;;;;;;;6.70;2.10;;;;;;;;;;4993977;28;20252;-76
2022/11/02 09:35:25;;;;;;;4.60;1.80;;;;;;;;;;4993622;28;20285;-76
2022/11/02 09:37:53;;;;;;;5.50;2.00;;;;;;;;;;4997930;28;20654;-76
2022/11/02 09:40:22;;;;;;;8.13;2.10;;;;;;;;;;4998055;28;20288;-76
2022/11/02 09:42:57;;;;;;;7.47;1.97;;;;;;;;;;4998021;28;20658;-75
2022/11/02 09:45:25;;;;;;;6.27;1.90;;;;;;;;;;4997089;28;20724;-75
2022/11/02 09:47:58;;;;;;;7.07;1.73;;;;;;;;;;4997773;28;20303;-76
2022/11/02 09:50:49;;;;;;;5.13;1.60;;;;;;;;;;4997639;28;20229;-77
2022/11/02 09:53:19;;;;;;;6.97;1.63;;;;;;;;;;4998014;28;20248;-76
2022/11/02 09:55:52;;;;;;;5.17;1.80;;;;;;;;;;4990765;28;20229;-76
2022/11/02 09:58:23;;;;;;;7.97;2.20;;;;;;;;;;4984008;28;20216;-76
2022/11/02 10:00:55;;;;;;;6.90;2.07;;;;;;;;;;4997126;28;20773;-75
2022/11/02 10:03:34;;;;;;;5.97;1.97;;;;;;;;;;4997379;28;20697;-75
2022/11/02 10:06:06;;;;;;;6.13;2.10;;;;;;;;;;4997383;28;20296;-75
2022/11/02 10:08:39;;;;;;;7.33;1.90;;;;;;;;;;4997210;28;20713;-76
2022/11/02 10:11:13;;;;;;;5.77;1.70;;;;;;;;;;4997058;28;20308;-76
2022/11/02 10:13:45;;;;;;;6.00;2.13;;;;;;;;;;4997285;28;20225;-76
2022/11/02 10:16:16;;;;;;;3.93;1.73;;;;;;;;;;4996837;28;20255;-75
2022/11/02 10:18:48;;;;;;;5.20;1.70;;;;;;;;;;4997481;28;20189;-76
2022/11/02 10:21:20;;;;;;;5.73;1.70;;;;;;;;;;4997773;28;20367;-76
2022/11/02 10:23:52;;;;;;;5.20;1.90;;;;;;;;;;4997356;28;20294;-76
2022/11/02 10:26:26;;;;;;;8.73;1.83;;;;;;;;;;4996173;28;20285;-75
2022/11/02 10:28:58;;;;;;;6.60;1.83;;;;;;;;;;4996852;28;20245;-76
2022/11/02 10:31:29;;;;;;;6.90;1.87;;;;;;;;;;4996874;28;20225;-76
2022/11/02 10:34:01;;;;;;;4.40;1.60;;;;;;;;;;4996880;28;20205;-76
2022/11/02 10:36:41;;;;;;;5.17;1.80;;;;;;;;;;4996772;28;20263;-75
2022/11/02 10:39:19;;;;;;;5.17;1.70;;;;;;;;;;4996941;28;20205;-76
2022/11/02 10:41:59;;;;;;;9.03;1.90;;;;;;;;;;4997026;28;20253;-76
2022/11/02 10:44:43;;;;;;;5.00;1.77;;;;;;;;;;4996676;28;20205;-76
2022/11/02 10:47:15;;;;;;;7.70;1.60;;;;;;;;;;4996419;28;20244;-75
2022/11/02 10:49:50;;;;;;;6.37;1.80;;;;;;;;;;4996362;28;20247;-76
2022/11/02 10:52:19;;;;;;;4.77;1.63;;;;;;;;;;4996560;28;20256;-75
2022/11/02 10:54:50;;;;;;;5.30;1.67;;;;;;;;;;4996425;28;20221;-77
2022/11/02 10:57:21;;;;;;;7.80;2.00;;;;;;;;;;4989205;28;20257;-75
2022/11/02 11:00:17;;;;;;;7.80;1.93;;;;;;;;;;4977480;28;20233;-76
2022/11/02 11:02:45;;;;;;;7.53;1.73;;;;;;;;;;4976757;28;20296;-75
2022/11/02 11:05:15;;;;;;;8.50;1.80;;;;;;;;;;4977038;28;20639;-76
2022/11/02 11:07:44;;;;;;;5.57;1.67;;;;;;;;;;4986581;28;20260;-76
2022/11/02 11:10:15;;;;;;;8.90;1.80;;;;;;;;;;4995937;28;20217;-76
2022/11/02 11:12:45;;;;;;;6.93;1.90;;;;;;;;;;4996683;28;20263;-76
2022/11/02 11:15:22;;;;;;;6.63;1.73;;;;;;;;;;4996150;28;20236;-76
2022/11/02 11:18:13;;;;;;;5.47;1.70;;;;;;;;;;4995778;28;20201;-76
2022/11/02 11:21:04;;;;;;;4.40;1.40;;;;;;;;;;4993186;28;20233;-76
2022/11/02 11:23:32;;;;;;;4.67;1.73;;;;;;;;;;4991796;28;20284;-76
2022/11/02 11:26:02;;;;;;;5.43;1.50;;;;;;;;;;4996148;28;20212;-76
2022/11/02 11:28:32;;;;;;;4.70;1.70;;;;;;;;;;4996142;28;20576;-76
2022/11/02 11:31:05;;;;;;;5.97;1.50;;;;;;;;;;4996228;28;20229;-76
2022/11/02 11:33:34;;;;;;;4.80;1.70;;;;;;;;;;4996551;28;20272;-76
2022/11/02 11:36:05;;;;;;;7.50;1.80;;;;;;;;;;4996331;28;20291;-76
2022/11/02 11:38:34;;;;;;;10.47;1.80;;;;;;;;;;4996378;28;20228;-76
2022/11/02 11:41:03;;;;;;;5.13;1.77;;;;;;;;;;4995894;28;20641;-76
2022/11/02 11:43:37;;;;;;;5.73;1.93;;;;;;;;;;4995744;28;20206;-75
2022/11/02 11:46:06;;;;;;;6.53;1.60;;;;;;;;;;4996002;28;20205;-75
2022/11/02 11:48:36;;;;;;;5.70;2.00;;;;;;;;;;4995842;28;20279;-76
2022/11/02 11:51:22;;;;;;;4.87;1.53;;;;;;;;;;4996026;28;20620;-76
2022/11/02 11:54:14;;;;;;;5.40;1.50;;;;;;;;;;4996235;28;20600;-75
2022/11/02 11:56:42;;;;;;;6.37;1.67;;;;;;;;;;4992552;28;20209;-76
2022/11/02 11:59:20;;;;;;;3.30;1.33;;;;;;;;;;4996401;28;20205;-76
2022/11/02 12:01:48;;;;;;;4.17;1.43;;;;;;;;;;4976622;28;20619;-76
2022/11/02 12:04:27;;;;;;;4.47;1.20;;;;;;;;;;4983996;28;20205;-75
2022/11/02 12:07:02;;;;;;;5.17;1.57;;;;;;;;;;4995110;28;20248;-76
2022/11/02 12:09:33;;;;;;;6.47;1.63;;;;;;;;;;4977722;28;20248;-76
2022/11/02 12:12:06;;;;;;;4.23;1.60;;;;;;;;;;4995456;28;20225;-76
2022/11/02 12:14:40;;;;;;;4.27;1.43;;;;;;;;;;4995004;28;20679;-76
2022/11/02 12:17:16;;;;;;;5.97;1.50;;;;;;;;;;4994892;28;20347;-75
2022/11/02 12:19:53;;;;;;;4.67;1.43;;;;;;;;;;4994616;28;20280;-76
2022/11/02 12:22:25;;;;;;;4.17;1.33;;;;;;;;;;4988306;28;20725;-76
2022/11/02 12:25:02;;;;;;;8.00;1.80;;;;;;;;;;4994683;28;20212;-76
2022/11/02 12:27:37;;;;;;;4.80;1.53;;;;;;;;;;4994532;28;20707;-76
2022/11/02 12:30:14;;;;;;;7.47;1.60;;;;;;;;;;4994713;28;20632;-75
2022/11/02 12:32:49;;;;;;;7.03;1.67;;;;;;;;;;4994065;28;20205;-76
2022/11/02 12:35:28;;;;;;;5.90;1.57;;;;;;;;;;4994324;28;20299;-76
2022/11/02 12:38:06;;;;;;;5.37;1.57;;;;;;;;;;4993975;28;20230;-75
2022/11/02 12:40:42;;;;;;;7.07;1.50;;;;;;;;;;4985077;28;20277;-76
2022/11/02 12:43:20;;;;;;;4.47;1.60;;;;;;;;;;4974008;28;20225;-76
2022/11/02 12:45:52;;;;;;;6.47;1.53;;;;;;;;;;4992268;28;20339;-76
2022/11/02 12:48:24;;;;;;;3.43;1.33;;;;;;;;;;4993974;28;20236;-76
2022/11/02 12:50:56;;;;;;;6.00;1.60;;;;;;;;;;4994055;28;20261;-75
2022/11/02 12:53:34;;;;;;;5.77;1.57;;;;;;;;;;4994036;28;20232;-77
2022/11/02 12:56:04;;;;;;;6.33;1.77;;;;;;;;;;4994150;28;20295;-75
2022/11/02 12:58:35;;;;;;;5.33;1.40;;;;;;;;;;4993762;28;20228;-76
2022/11/02 13:01:08;;;;;;;6.37;1.70;;;;;;;;;;4986386;28;20220;-75
2022/11/02 13:03:45;;;;;;;6.70;1.50;;;;;;;;;;4995007;28;20208;-76
2022/11/02 13:06:16;;;;;;;5.57;1.80;;;;;;;;;;4993949;28;20625;-76
2022/11/02 13:08:48;;;;;;;5.80;1.60;;;;;;;;;;4994176;28;20263;-75
2022/11/02 13:11:20;;;;;;;5.33;1.70;;;;;;;;;;4994774;28;20252;-75
2022/11/02 13:13:51;;;;;;;7.27;1.83;;;;;;;;;;4994415;28;20233;-76
2022/11/02 13:16:21;;;;;;;3.73;1.47;;;;;;;;;;4994035;28;20276;-76
2022/11/02 13:18:52;;;;;;;4.23;1.33;;;;;;;;;;4994568;28;20271;-75
2022/11/02 13:21:24;;;;;;;5.07;1.53;;;;;;;;;;4992987;28;20271;-76
2022/11/02 13:23:56;;;;;;;6.47;1.70;;;;;;;;;;4981414;28;20247;-77
2022/11/02 13:26:28;;;;;;;6.73;1.60;;;;;;;;;;4994234;28;20205;-76
2022/11/02 13:29:00;;;;;;;5.27;1.53;;;;;;;;;;4994362;28;20248;-77
2022/11/02 13:31:30;;;;;;;4.60;1.57;;;;;;;;;;4994974;28;20232;-77
2022/11/02 13:34:01;;;;;;;5.47;1.70;;;;;;;;;;4995586;28;20204;-77
2022/11/02 13:36:30;;;;;;;4.63;1.40;;;;;;;;;;4994296;28;20233;-78
2022/11/02 13:39:03;;;;;;;4.97;1.40;;;;;;;;;;4994632;28;20201;-77
2022/11/02 13:41:43;;;;;;;5.53;1.67;;;;;;;;;;4994500;28;20285;-77
2022/11/02 13:44:28;;;;;;;3.83;1.33;;;;;;;;;;4994370;28;20287;-77
2022/11/02 13:47:01;;;;;;;5.50;1.57;;;;;;;;;;4993984;28;20232;-77
2022/11/02 13:49:30;;;;;;;4.57;1.30;;;;;;;;;;4993770;28;20759;-77
2022/11/02 13:52:00;;;;;;;4.83;1.40;;;;;;;;;;4994267;28;20647;-77
2022/11/02 13:54:33;;;;;;;6.43;1.70;;;;;;;;;;4994038;28;20271;-78
2022/11/02 13:57:02;;;;;;;6.27;1.80;;;;;;;;;;4993589;28;20288;-76
2022/11/02 13:59:32;;;;;;;4.17;1.50;;;;;;;;;;4994009;28;20690;-77
2022/11/02 14:02:03;;;;;;;4.97;1.50;;;;;;;;;;4994143;28;20225;-78
2022/11/02 14:04:38;;;;;;;9.60;1.80;;;;;;;;;;4994195;28;20216;-77
2022/11/02 14:07:08;;;;;;;6.30;1.60;;;;;;;;;;4993644;28;20291;-78
2022/11/02 14:09:41;;;;;;;5.23;1.70;;;;;;;;;;4994109;28;20650;-78
2022/11/02 14:12:28;;;;;;;5.57;1.80;;;;;;;;;;4993520;28;20233;-79
2022/11/02 14:15:15;;;;;;;2.83;1.40;;;;;;;;;;4993467;28;20205;-77
2022/11/02 14:18:00;;;;;;;3.33;1.40;;;;;;;;;;4994112;28;20733;-78
2022/11/02 14:20:33;;;;;;;4.57;1.53;;;;;;;;;;4993009;28;20204;-77
2022/11/02 14:23:20;;;;;;;6.20;1.73;;;;;;;;;;4994305;28;20252;-78
2022/11/02 14:25:51;;;;;;;4.80;1.83;;;;;;;;;;4996958;28;20212;-77
2022/11/02 14:28:31;;;;;;;6.00;1.70;;;;;;;;;;4977990;28;20265;-77
2022/11/02 14:31:02;;;;;;;5.50;1.57;;;;;;;;;;4989063;28;20309;-78
2022/11/02 14:33:50;;;;;;;3.30;1.40;;;;;;;;;;4996087;28;20228;-78
2022/11/02 14:36:31;;;;;;;14.03;7.50;;;;;;;;;;4995922;28;20288;-77
2022/11/02 14:39:03;;;;;;;4.77;1.97;;;;;;;;;;4990761;28;20216;-77
2022/11/02 14:41:47;;;;;;;7.83;2.00;;;;;;;;;;4993943;28;20244;-77
2022/11/02 14:44:26;;;;;;;5.33;1.67;;;;;;;;;;4995848;28;20200;-77
2022/11/02 14:46:56;;;;;;;5.47;1.80;;;;;;;;;;4986825;28;20272;-77
2022/11/02 14:49:27;;;;;;;6.60;1.97;;;;;;;;;;4995693;28;20676;-78
2022/11/02 14:52:01;;;;;;;5.80;1.37;;;;;;;;;;4994315;28;20229;-78
2022/11/02 14:54:32;;;;;;;5.97;1.70;;;;;;;;;;4992422;28;20299;-77
2022/11/02 14:57:04;;;;;;;5.40;2.10;;;;;;;;;;4995200;28;20205;-78
2022/11/02 14:59:35;;;;;;;7.40;1.67;;;;;;;;;;4996757;28;20637;-79
2022/11/02 15:02:05;;;;;;;4.87;1.70;;;;;;;;;;4996619;28;20315;-79
2022/11/02 15:04:35;;;;;;;6.03;1.60;;;;;;;;;;4996611;28;20232;-81
2022/11/02 15:07:05;;;;;;;5.80;1.70;;;;;;;;;;4996611;28;20275;-81
2022/11/02 15:09:54;;;;;;;6.40;1.77;;;;;;;;;;4997323;28;20209;-80
2022/11/02 15:12:40;;;;;;;6.30;1.93;;;;;;;;;;4995961;28;20224;-79
2022/11/02 15:15:32;;;;;;;5.97;1.50;;;;;;;;;;4976067;28;20889;-80
2022/11/02 15:18:01;;;;;;;5.10;1.50;;;;;;;;;;4976228;28;20285;-80
2022/11/02 15:20:31;;;;;;;5.47;2.03;;;;;;;;;;4976405;28;20210;-80
2022/11/02 15:23:03;;;;;;;5.90;1.60;;;;;;;;;;4976155;28;20248;-79